Time;durP1;ratioP1;P1;durP2;ratioP2;P2;SDS_P1;SDS_P2;PMS_P1;PMS_P2;Temp;Humidity;BMP_temperature;BMP_pressure;BME280_temperature;BME280_humidity;BME280_pressure;Samples;Min_cycle;Max_cycle;Signal;HPM_P1;HPM_P2
2022/12/08 00:01:30;;;;;;;14.90;8.83;;;;;;;6.76;69.37;100237.91;5144926;27;20207;-69
2022/12/08 00:03:58;;;;;;;18.20;8.40;;;;;;;6.57;70.10;100243.03;5135885;27;20481;-70
2022/12/08 00:09:24;;;;;;;19.10;9.50;;;;;;;6.33;70.89;100242.44;5137762;27;20677;-69
2022/12/08 00:11:55;;;;;;;16.20;9.30;;;;;;;6.40;71.24;100241.81;5145190;27;20255;-69
2022/12/08 00:14:25;;;;;;;15.83;8.53;;;;;;;6.53;70.62;100238.97;5143347;27;20217;-69
2022/12/08 00:16:53;;;;;;;16.93;8.50;;;;;;;6.55;70.44;100236.22;5141894;27;20637;-69
2022/12/08 00:19:21;;;;;;;15.73;8.10;;;;;;;6.54;70.47;100238.00;5146902;27;20296;-70
2022/12/08 00:21:50;;;;;;;17.73;8.80;;;;;;;6.46;70.68;100231.72;5142518;27;20502;-69
2022/12/08 00:24:19;;;;;;;17.90;9.60;;;;;;;6.45;71.09;100227.41;5144558;27;20213;-69
2022/12/08 00:26:48;;;;;;;17.43;8.77;;;;;;;6.43;71.35;100227.53;5140284;27;20676;-70
2022/12/08 00:29:16;;;;;;;17.67;8.80;;;;;;;6.48;71.38;100227.16;5148765;27;20229;-69
2022/12/08 00:31:44;;;;;;;17.67;8.27;;;;;;;6.54;71.17;100219.56;5141379;27;20214;-69
2022/12/08 00:34:12;;;;;;;14.97;8.43;;;;;;;6.46;71.26;100213.28;5144546;27;20683;-70
2022/12/08 00:36:40;;;;;;;18.17;8.60;;;;;;;6.39;71.56;100212.94;5141653;27;20297;-70
2022/12/08 00:39:08;;;;;;;16.67;9.03;;;;;;;6.43;71.46;100217.00;5146461;27;20209;-69
2022/12/08 00:44:22;;;;;;;17.27;9.50;;;;;;;6.37;71.67;100209.59;5141891;27;20205;-70
2022/12/08 00:46:50;;;;;;;17.33;9.40;;;;;;;6.36;71.94;100211.41;5148494;27;20201;-70
2022/12/08 00:49:18;;;;;;;18.67;9.03;;;;;;;6.30;71.96;100219.81;5144001;27;20201;-69
2022/12/08 00:51:46;;;;;;;18.00;8.43;;;;;;;6.25;72.47;100210.59;5151147;27;20216;-70
2022/12/08 00:54:14;;;;;;;17.93;8.83;;;;;;;6.24;72.58;100209.81;5143436;27;20236;-70
2022/12/08 00:56:44;;;;;;;16.60;9.00;;;;;;;6.21;72.92;100199.50;5150499;27;20577;-69
2022/12/08 00:59:11;;;;;;;21.37;10.07;;;;;;;6.19;73.22;100200.59;5137067;27;20296;-68
2022/12/08 01:01:39;;;;;;;19.73;10.17;;;;;;;6.10;73.84;100191.66;5142593;27;20232;-68
2022/12/08 01:04:09;;;;;;;21.83;9.90;;;;;;;6.17;73.58;100187.53;5148289;27;20215;-69
2022/12/08 01:06:38;;;;;;;16.33;9.07;;;;;;;6.16;73.73;100179.78;5147874;27;20205;-69
2022/12/08 01:09:07;;;;;;;19.83;9.47;;;;;;;6.20;73.73;100182.03;5139466;27;20592;-69
2022/12/08 01:11:36;;;;;;;19.63;9.30;;;;;;;6.19;73.46;100184.78;5141575;27;20232;-69
2022/12/08 01:14:05;;;;;;;18.77;9.73;;;;;;;6.13;73.79;100180.03;5144422;27;20205;-69
2022/12/08 01:16:35;;;;;;;17.97;9.20;;;;;;;6.17;73.69;100179.66;5143375;27;20208;-69
2022/12/08 01:19:04;;;;;;;16.73;9.40;;;;;;;6.27;73.43;100183.19;5139397;27;20210;-69
2022/12/08 01:21:32;;;;;;;18.27;8.57;;;;;;;6.26;73.06;100176.25;5138039;27;20202;-69
2022/12/08 01:24:01;;;;;;;20.07;9.33;;;;;;;6.29;72.84;100177.81;5149718;27;20209;-69
2022/12/08 01:26:29;;;;;;;17.43;8.93;;;;;;;6.31;72.87;100175.88;5147598;27;20208;-69
2022/12/08 01:28:57;;;;;;;19.20;8.53;;;;;;;6.32;72.92;100175.78;5127742;27;20261;-70
2022/12/08 01:31:26;;;;;;;17.80;9.30;;;;;;;6.41;72.69;100175.00;5120031;27;20221;-70
2022/12/08 01:33:54;;;;;;;16.50;8.80;;;;;;;6.42;72.31;100178.44;5113970;27;20301;-70
2022/12/08 01:36:24;;;;;;;17.27;8.77;;;;;;;6.37;72.38;100178.84;5115457;27;21036;-71
2022/12/08 01:38:53;;;;;;;16.77;8.13;;;;;;;6.37;72.64;100184.09;5122849;27;20231;-70
2022/12/08 01:41:23;;;;;;;16.90;8.50;;;;;;;6.45;72.26;100185.25;5120818;27;20197;-69
2022/12/08 01:43:56;;;;;;;17.50;8.40;;;;;;;6.37;72.13;100178.00;5127091;27;20206;-69
2022/12/08 01:46:27;;;;;;;15.07;8.77;;;;;;;6.28;72.59;100179.59;5116817;27;20208;-69
2022/12/08 01:49:01;;;;;;;15.77;8.07;;;;;;;6.35;73.12;100175.50;5120868;27;20265;-69
2022/12/08 01:51:32;;;;;;;14.90;7.93;;;;;;;6.37;72.42;100183.25;5118038;27;20566;-70
2022/12/08 01:54:02;;;;;;;16.83;9.10;;;;;;;6.32;73.08;100181.03;5122781;27;20213;-69
2022/12/08 01:56:36;;;;;;;14.93;8.30;;;;;;;6.29;72.81;100178.66;5127935;27;20751;-70
2022/12/08 01:59:04;;;;;;;16.10;8.33;;;;;;;6.26;73.00;100176.25;5121936;27;20826;-71
2022/12/08 02:01:33;;;;;;;16.73;9.10;;;;;;;6.22;73.13;100174.84;5123218;27;20205;-69
2022/12/08 02:04:03;;;;;;;19.17;8.67;;;;;;;6.21;73.29;100167.91;5121615;27;20651;-69
2022/12/08 02:06:35;;;;;;;15.53;8.50;;;;;;;6.16;73.76;100171.88;5120862;27;20206;-68
2022/12/08 02:09:05;;;;;;;14.17;8.00;;;;;;;6.04;74.16;100165.84;5117001;27;20208;-71
2022/12/08 02:11:33;;;;;;;16.40;7.97;;;;;;;6.06;74.52;100161.31;5123736;27;20653;-69
2022/12/08 02:14:03;;;;;;;16.60;8.20;;;;;;;6.10;74.48;100154.81;5121131;27;20664;-69
2022/12/08 02:16:42;;;;;;;16.47;8.53;;;;;;;6.15;74.58;100162.34;5121048;27;20214;-70
2022/12/08 02:19:34;;;;;;;18.80;7.67;;;;;;;6.20;73.93;100152.25;5114828;27;20205;-70
2022/12/08 02:22:10;;;;;;;16.83;8.73;;;;;;;6.16;74.19;100154.28;5121728;27;20295;-69
2022/12/08 02:24:46;;;;;;;19.07;9.20;;;;;;;6.18;73.82;100155.00;5119134;27;20284;-70
2022/12/08 02:27:28;;;;;;;16.83;8.80;;;;;;;6.13;74.12;100143.19;5131317;27;20240;-70
2022/12/08 02:30:11;;;;;;;15.47;8.87;;;;;;;6.20;73.79;100145.19;5145613;27;20878;-68
2022/12/08 02:33:04;;;;;;;16.10;8.57;;;;;;;6.09;73.98;100141.75;5137094;27;20653;-69
2022/12/08 02:35:39;;;;;;;16.83;8.10;;;;;;;6.10;74.62;100141.63;5136500;27;20779;-70
2022/12/08 02:38:15;;;;;;;14.20;7.97;;;;;;;6.22;74.03;100138.00;5139610;27;20204;-69
2022/12/08 02:40:53;;;;;;;16.80;8.30;;;;;;;6.23;73.65;100134.41;5145066;27;20196;-70
2022/12/08 02:43:29;;;;;;;14.17;7.50;;;;;;;6.29;74.11;100130.41;5137353;27;20490;-70
2022/12/08 02:46:01;;;;;;;14.57;7.83;;;;;;;6.37;73.26;100123.53;5139192;27;20205;-69
2022/12/08 02:48:29;;;;;;;15.47;7.10;;;;;;;6.39;73.20;100126.88;5138735;27;20204;-70
2022/12/08 02:50:59;;;;;;;12.57;7.00;;;;;;;6.38;72.81;100127.84;5136142;27;20213;-71
2022/12/08 02:53:30;;;;;;;15.27;7.43;;;;;;;6.42;73.14;100126.59;5142568;27;20565;-69
2022/12/08 02:56:08;;;;;;;15.20;7.40;;;;;;;6.56;72.74;100121.97;5148481;27;21004;-69
2022/12/08 02:58:50;;;;;;;15.70;8.50;;;;;;;6.65;72.43;100124.66;5140377;27;20227;-69
2022/12/08 03:01:34;;;;;;;15.93;7.23;;;;;;;6.75;71.83;100115.00;5142253;27;20205;-69
2022/12/08 03:04:07;;;;;;;16.50;8.13;;;;;;;6.82;71.48;100120.56;5138860;27;20304;-69
2022/12/08 03:06:45;;;;;;;16.60;7.97;;;;;;;6.88;71.16;100125.31;5141499;27;20205;-69
2022/12/08 03:09:19;;;;;;;16.03;6.90;;;;;;;6.83;71.12;100116.97;5140935;27;20201;-69
2022/12/08 03:11:51;;;;;;;12.27;6.63;;;;;;;6.85;71.00;100109.78;5145946;27;20323;-69
2022/12/08 03:14:21;;;;;;;14.43;7.17;;;;;;;6.90;71.10;100109.34;5143261;27;20201;-69
2022/12/08 03:16:53;;;;;;;15.77;7.37;;;;;;;6.96;70.58;100107.00;5146716;27;20236;-69
2022/12/08 03:19:26;;;;;;;16.30;7.87;;;;;;;6.94;70.75;100108.97;5143702;27;20256;-70
2022/12/08 03:22:01;;;;;;;14.27;7.40;;;;;;;7.01;70.57;100106.63;5145193;27;20209;-70
2022/12/08 03:24:32;;;;;;;13.90;7.47;;;;;;;7.03;70.24;100102.91;5143696;27;20204;-68
2022/12/08 03:27:03;;;;;;;14.30;7.13;;;;;;;7.09;69.93;100102.34;5143318;27;20599;-68
2022/12/08 03:29:32;;;;;;;16.60;7.67;;;;;;;7.14;69.74;100100.13;5151455;27;20205;-69
2022/12/08 03:32:09;;;;;;;12.23;6.47;;;;;;;7.11;69.54;100092.50;5145952;27;20218;-71
2022/12/08 03:34:40;;;;;;;14.50;6.97;;;;;;;7.13;69.81;100087.91;5147293;27;20212;-69
2022/12/08 03:37:09;;;;;;;12.27;6.87;;;;;;;7.16;69.38;100092.94;5150235;27;20225;-68
2022/12/08 03:39:36;;;;;;;18.17;6.10;;;;;;;7.02;69.34;100080.13;5146610;27;20214;-69
2022/12/08 03:42:04;;;;;;;13.73;7.07;;;;;;;6.97;69.95;100078.84;5140394;27;20634;-69
2022/12/08 03:44:32;;;;;;;12.40;7.13;;;;;;;6.97;69.90;100073.59;5142958;27;20222;-70
2022/12/08 03:47:00;;;;;;;10.90;6.37;;;;;;;6.88;70.08;100066.47;5139304;27;20291;-69
2022/12/08 03:49:27;;;;;;;13.03;7.60;;;;;;;6.89;70.54;100070.78;5142192;27;20297;-70
2022/12/08 03:51:55;;;;;;;13.37;6.87;;;;;;;6.84;70.34;100071.22;5140739;27;20214;-70
2022/12/08 03:54:26;;;;;;;12.67;7.30;;;;;;;6.85;70.45;100067.59;5150286;27;20203;-70
2022/12/08 03:56:54;;;;;;;13.13;6.80;;;;;;;6.84;70.67;100060.66;5145129;27;20235;-69
2022/12/08 03:59:22;;;;;;;11.23;6.63;;;;;;;6.85;70.17;100059.69;5141428;27;20212;-69
2022/12/08 04:01:50;;;;;;;13.93;6.67;;;;;;;6.71;70.81;100058.25;5140841;27;20206;-69
2022/12/08 04:04:17;;;;;;;12.73;6.87;;;;;;;6.77;70.92;100068.25;5141690;27;20844;-69
2022/12/08 04:06:46;;;;;;;10.60;6.30;;;;;;;6.68;70.91;100063.81;5142810;27;20200;-69
2022/12/08 04:09:13;;;;;;;12.57;6.70;;;;;;;6.74;71.02;100067.69;5142666;27;20197;-69
2022/12/08 04:11:43;;;;;;;11.23;6.47;;;;;;;6.72;70.72;100059.09;5151840;27;20224;-70
2022/12/08 04:14:10;;;;;;;14.73;6.27;;;;;;;6.69;71.08;100057.53;5139650;27;20293;-70
2022/12/08 04:16:38;;;;;;;11.23;6.27;;;;;;;6.68;71.21;100055.06;5145031;27;20233;-69
2022/12/08 04:19:06;;;;;;;12.30;6.53;;;;;;;6.62;71.60;100059.03;5137985;27;20209;-69
2022/12/08 04:21:34;;;;;;;15.10;7.20;;;;;;;6.59;71.70;100063.75;5141303;27;20604;-70
2022/12/08 04:24:02;;;;;;;11.97;6.83;;;;;;;6.59;71.95;100058.50;5143960;27;20215;-70
2022/12/08 04:26:29;;;;;;;13.10;6.37;;;;;;;6.59;71.75;100053.22;5139760;27;20255;-69
2022/12/08 04:28:58;;;;;;;12.13;6.97;;;;;;;6.58;71.86;100056.81;5147364;27;20756;-70
2022/12/08 04:31:26;;;;;;;9.63;5.90;;;;;;;6.53;71.88;100041.41;5149816;27;20254;-70
2022/12/08 04:33:54;;;;;;;14.87;7.07;;;;;;;6.45;72.47;100048.28;5145788;27;20291;-71
2022/12/08 04:36:22;;;;;;;13.77;6.03;;;;;;;6.45;72.45;100043.88;5142642;27;20221;-69
2022/12/08 04:38:49;;;;;;;13.70;6.43;;;;;;;6.41;72.66;100038.03;5143749;27;20202;-70
2022/12/08 04:41:17;;;;;;;11.27;5.97;;;;;;;6.38;73.04;100038.28;5142156;27;20198;-69
2022/12/08 04:43:45;;;;;;;11.30;6.20;;;;;;;6.47;72.91;100030.56;5143566;27;20205;-70
2022/12/08 04:46:16;;;;;;;11.80;6.20;;;;;;;6.48;72.59;100038.34;5143558;27;20236;-69
2022/12/08 04:48:44;;;;;;;14.70;6.63;;;;;;;6.57;72.31;100041.97;5141395;27;20265;-70
2022/12/08 04:51:15;;;;;;;12.93;6.13;;;;;;;6.70;72.25;100045.19;5145886;27;20216;-70
2022/12/08 04:53:43;;;;;;;10.60;6.40;;;;;;;6.66;71.74;100036.75;5142530;27;20204;-68
2022/12/08 04:56:14;;;;;;;14.57;6.10;;;;;;;6.67;71.84;100040.22;5145018;27;20213;-69
2022/12/08 04:58:41;;;;;;;11.80;5.67;;;;;;;6.62;71.79;100050.31;5140987;27;20212;-69
2022/12/08 05:01:09;;;;;;;14.73;6.97;;;;;;;6.53;72.30;100043.19;5142680;27;20201;-69
2022/12/08 05:03:39;;;;;;;12.20;5.83;;;;;;;6.49;72.46;100039.19;5142922;27;20201;-69
2022/12/08 05:06:07;;;;;;;11.87;6.07;;;;;;;6.53;72.32;100041.41;5141025;27;20211;-71
2022/12/08 05:08:34;;;;;;;13.13;5.77;;;;;;;6.39;72.64;100034.69;5143576;27;20650;-69
2022/12/08 05:11:03;;;;;;;12.33;5.73;;;;;;;6.39;72.75;100028.59;5144512;27;20590;-70
2022/12/08 05:13:31;;;;;;;10.70;5.87;;;;;;;6.37;73.04;100028.72;5148429;27;20661;-69
2022/12/08 05:16:03;;;;;;;13.30;6.80;;;;;;;6.34;72.72;100031.63;5139198;27;20209;-69
2022/12/08 05:18:31;;;;;;;12.33;6.10;;;;;;;6.31;72.76;100034.53;5137344;27;20653;-69
2022/12/08 05:21:01;;;;;;;12.23;6.47;;;;;;;6.34;72.97;100036.88;5140508;27;20205;-69
2022/12/08 05:23:29;;;;;;;13.13;6.07;;;;;;;6.37;72.74;100035.78;5142859;27;20558;-70
2022/12/08 05:25:56;;;;;;;11.90;6.57;;;;;;;6.32;72.84;100038.84;5143059;27;20201;-70
2022/12/08 05:28:25;;;;;;;12.50;5.70;;;;;;;6.31;72.92;100042.44;5139462;27;20235;-71
2022/12/08 05:31:11;;;;;;;13.30;6.07;;;;;;;6.41;72.98;100035.41;5145601;27;20201;-69
2022/12/08 05:33:39;;;;;;;13.27;5.80;;;;;;;6.50;72.29;100036.41;5144083;27;20235;-70
2022/12/08 05:36:09;;;;;;;11.43;5.80;;;;;;;6.58;72.12;100038.38;5137517;27;20552;-70
2022/12/08 05:38:36;;;;;;;13.43;6.03;;;;;;;6.60;71.47;100039.06;5141939;27;20200;-70
2022/12/08 05:41:06;;;;;;;16.83;6.53;;;;;;;6.67;71.70;100033.16;5140498;27;20638;-69
2022/12/08 05:43:34;;;;;;;11.50;6.50;;;;;;;6.74;70.99;100033.44;5144640;27;20208;-69
2022/12/08 05:46:02;;;;;;;10.07;5.70;;;;;;;6.75;70.76;100027.22;5143304;27;20220;-69
2022/12/08 05:48:29;;;;;;;12.17;5.60;;;;;;;6.68;70.68;100024.28;5136896;27;20202;-70
2022/12/08 05:50:57;;;;;;;12.20;5.43;;;;;;;6.61;70.69;100022.28;5145330;27;20202;-70
2022/12/08 05:53:26;;;;;;;9.50;5.13;;;;;;;6.55;71.42;100025.47;5139652;27;20646;-69
2022/12/08 05:55:54;;;;;;;12.43;5.67;;;;;;;6.54;71.47;100021.16;5145241;27;20213;-69
2022/12/08 05:58:23;;;;;;;12.73;5.10;;;;;;;6.55;71.05;100022.84;5137448;27;20224;-69
2022/12/08 06:00:51;;;;;;;12.07;6.20;;;;;;;6.58;71.12;100015.50;5138586;27;20224;-69
2022/12/08 06:03:19;;;;;;;10.40;5.83;;;;;;;6.59;71.02;100024.25;5141952;27;20211;-69
2022/12/08 06:05:47;;;;;;;11.63;5.40;;;;;;;6.65;70.73;100029.81;5139081;27;20241;-69
2022/12/08 06:08:16;;;;;;;10.60;5.63;;;;;;;6.65;70.38;100029.81;5141518;27;20293;-69
2022/12/08 06:10:46;;;;;;;14.20;6.53;;;;;;;6.61;70.43;100022.28;5141726;27;20228;-69
2022/12/08 06:13:14;;;;;;;13.63;6.00;;;;;;;6.55;70.79;100017.56;5147877;27;20208;-70
2022/12/08 06:15:42;;;;;;;11.83;5.63;;;;;;;6.47;70.87;100025.31;5137886;27;20263;-69
2022/12/08 06:18:11;;;;;;;10.27;6.23;;;;;;;6.37;71.32;100020.00;5139303;27;20251;-69
2022/12/08 06:20:38;;;;;;;15.57;7.03;;;;;;;6.33;71.47;100011.50;5140186;27;20209;-69
2022/12/08 06:23:06;;;;;;;14.77;7.23;;;;;;;6.32;71.68;100016.94;5140275;27;20235;-70
2022/12/08 06:25:34;;;;;;;18.07;7.93;;;;;;;6.26;72.51;100014.81;5144191;27;20232;-69
2022/12/08 06:28:04;;;;;;;17.70;7.43;;;;;;;6.25;72.80;100011.34;5140025;27;20233;-70
2022/12/08 06:30:32;;;;;;;18.43;8.10;;;;;;;6.23;73.03;100002.75;5139631;27;20201;-68
2022/12/08 06:33:00;;;;;;;13.97;7.17;;;;;;;6.19;73.01;100011.88;5136554;27;20292;-70
2022/12/08 06:35:28;;;;;;;19.67;8.10;;;;;;;6.14;73.29;100006.19;5139374;27;20200;-70
2022/12/08 06:37:55;;;;;;;17.93;6.10;;;;;;;6.03;73.77;100012.34;5137005;27;20677;-73
2022/12/08 06:40:23;;;;;;;16.43;7.27;;;;;;;6.06;74.03;100013.91;5141293;27;20208;-70
2022/12/08 06:42:51;;;;;;;11.00;6.33;;;;;;;6.03;73.63;100016.78;5141646;27;20692;-71
2022/12/08 06:45:20;;;;;;;12.90;6.47;;;;;;;6.03;73.76;100022.03;5141383;27;20220;-70
2022/12/08 06:47:48;;;;;;;14.67;6.70;;;;;;;6.01;73.78;100005.53;5145277;27;20273;-69
2022/12/08 06:50:15;;;;;;;13.50;6.10;;;;;;;6.06;73.93;100020.97;5138504;27;20205;-70
2022/12/08 06:52:44;;;;;;;12.03;6.60;;;;;;;5.96;73.87;100015.63;5143319;27;20200;-69
2022/12/08 06:55:29;;;;;;;14.43;6.70;;;;;;;5.91;74.29;100013.38;5146107;27;20204;-69
2022/12/08 06:58:18;;;;;;;15.93;6.73;;;;;;;5.87;74.51;100011.94;5143339;27;20229;-70
2022/12/08 07:00:47;;;;;;;12.73;6.93;;;;;;;5.82;74.91;100023.81;5143376;27;20216;-69
2022/12/08 07:03:15;;;;;;;14.23;7.13;;;;;;;5.84;74.87;100027.16;5146944;27;20588;-69
2022/12/08 07:05:43;;;;;;;16.87;5.90;;;;;;;5.89;74.43;100015.28;5145389;27;20203;-68
2022/12/08 07:08:10;;;;;;;13.90;6.83;;;;;;;5.85;74.92;100026.19;5145444;27;20216;-70
2022/12/08 07:10:38;;;;;;;13.67;6.53;;;;;;;5.83;74.89;100025.47;5144317;27;20253;-69
2022/12/08 07:13:06;;;;;;;13.37;6.50;;;;;;;5.92;74.56;100014.22;5149608;27;20205;-70
2022/12/08 07:15:34;;;;;;;12.07;6.00;;;;;;;5.86;74.66;100015.53;5142379;27;20197;-70
2022/12/08 07:18:03;;;;;;;12.20;6.70;;;;;;;5.88;75.07;100018.91;5143521;27;20233;-70
2022/12/08 07:20:30;;;;;;;12.27;6.33;;;;;;;5.88;74.62;100012.81;5151095;27;20216;-69
2022/12/08 07:22:58;;;;;;;11.77;6.20;;;;;;;5.89;74.58;100019.75;5147976;27;20212;-69
2022/12/08 07:25:26;;;;;;;14.07;6.40;;;;;;;5.83;74.83;100022.84;5148761;27;20673;-69
2022/12/08 07:27:54;;;;;;;12.27;6.47;;;;;;;5.71;75.30;100016.00;5146193;27;20241;-69
2022/12/08 07:30:21;;;;;;;17.33;8.07;;;;;;;5.71;75.69;100031.78;5146823;27;20212;-69
2022/12/08 07:32:49;;;;;;;16.93;7.77;;;;;;;5.76;75.61;100030.41;5139344;27;20216;-69
2022/12/08 07:35:18;;;;;;;16.57;8.00;;;;;;;5.76;75.48;100025.16;5144370;27;20208;-69
2022/12/08 07:37:46;;;;;;;22.57;7.77;;;;;;;5.77;75.34;100018.94;5141170;27;20348;-69
2022/12/08 07:40:14;;;;;;;16.63;8.17;;;;;;;5.82;75.35;100024.63;5149479;27;20209;-70
2022/12/08 07:42:42;;;;;;;20.87;7.37;;;;;;;5.82;75.63;100024.63;5155178;27;20283;-69
2022/12/08 07:45:10;;;;;;;17.70;8.07;;;;;;;5.86;75.44;100017.34;5139266;27;20197;-69
2022/12/08 07:47:38;;;;;;;17.23;8.33;;;;;;;5.87;75.07;100024.28;5148192;27;20201;-70
2022/12/08 07:50:07;;;;;;;18.40;8.03;;;;;;;5.78;75.65;100023.25;5141531;27;20550;-69
2022/12/08 07:52:36;;;;;;;15.90;7.77;;;;;;;5.83;75.81;100028.09;5142177;27;20211;-70
2022/12/08 07:55:04;;;;;;;16.70;8.23;;;;;;;5.89;75.42;100011.84;5145005;27;20205;-71
2022/12/08 07:57:32;;;;;;;16.03;7.50;;;;;;;5.91;75.03;100005.47;5142974;27;20207;-70
2022/12/08 08:00:00;;;;;;;14.20;6.90;;;;;;;5.85;75.12;100008.59;5140875;27;20623;-68
2022/12/08 08:02:28;;;;;;;17.23;6.40;;;;;;;5.92;74.68;100008.94;5142050;27;20670;-70
2022/12/08 08:04:56;;;;;;;12.67;6.73;;;;;;;5.95;74.95;100012.16;5141536;27;20626;-69
2022/12/08 08:07:24;;;;;;;15.07;7.03;;;;;;;5.88;75.08;100010.19;5141469;27;20307;-70
2022/12/08 08:09:53;;;;;;;19.00;8.40;;;;;;;5.85;75.42;100013.03;5143627;27;20213;-70
2022/12/08 08:12:21;;;;;;;15.50;7.67;;;;;;;5.80;75.77;100015.22;5142768;27;20768;-68
2022/12/08 08:14:58;;;;;;;13.87;6.93;;;;;;;5.80;75.89;100017.84;5145525;27;20198;-69
2022/12/08 08:17:26;;;;;;;17.50;6.97;;;;;;;5.90;75.91;100014.34;5146104;27;20240;-68
2022/12/08 08:19:54;;;;;;;15.70;7.73;;;;;;;5.94;75.67;100007.88;5140855;27;20205;-69
2022/12/08 08:22:22;;;;;;;15.93;6.97;;;;;;;5.96;75.49;100011.22;5139932;27;20209;-69
2022/12/08 08:24:49;;;;;;;16.40;6.70;;;;;;;5.97;75.22;100018.13;5146650;27;20701;-69
2022/12/08 08:27:19;;;;;;;14.87;7.53;;;;;;;5.95;75.35;100012.16;5140330;27;20232;-69
2022/12/08 08:29:47;;;;;;;12.97;6.87;;;;;;;5.95;75.34;100021.84;5141820;27;20213;-70
2022/12/08 08:32:15;;;;;;;14.67;7.27;;;;;;;5.92;75.64;100019.47;5143136;27;20197;-69
2022/12/08 08:34:42;;;;;;;17.37;6.63;;;;;;;5.96;75.56;100016.47;5142924;27;20197;-68
2022/12/08 08:37:10;;;;;;;15.27;7.43;;;;;;;6.00;75.26;100017.03;5138956;27;20316;-69
2022/12/08 08:39:38;;;;;;;13.77;6.70;;;;;;;5.93;75.78;100021.97;5144269;27;20732;-68
2022/12/08 08:42:06;;;;;;;13.83;6.43;;;;;;;5.92;76.21;100024.72;5142366;27;20208;-70
2022/12/08 08:44:36;;;;;;;15.37;6.13;;;;;;;5.96;75.98;100021.72;5140846;27;20205;-69
2022/12/08 08:47:03;;;;;;;11.83;6.03;;;;;;;6.02;75.69;100025.63;5136633;27;20205;-69
2022/12/08 08:49:31;;;;;;;12.10;5.83;;;;;;;6.02;75.79;100025.63;5148580;27;20238;-69
2022/12/08 08:51:59;;;;;;;12.43;6.03;;;;;;;6.00;75.72;100020.50;5143249;27;20705;-69
2022/12/08 08:54:29;;;;;;;14.67;6.30;;;;;;;6.02;75.91;100015.94;5140954;27;20685;-70
2022/12/08 08:56:56;;;;;;;14.53;6.77;;;;;;;6.08;75.34;100019.84;5140807;27;20562;-69
2022/12/08 08:59:25;;;;;;;12.13;6.37;;;;;;;6.11;75.25;100018.75;5140306;27;20240;-69
2022/12/08 09:01:54;;;;;;;14.23;6.50;;;;;;;6.10;74.85;100024.97;5140524;27;20202;-69
2022/12/08 09:04:24;;;;;;;11.47;5.90;;;;;;;6.10;75.09;100017.91;5140376;27;20323;-68
2022/12/08 09:06:52;;;;;;;12.67;5.77;;;;;;;6.12;75.35;100021.25;5142469;27;20273;-69
2022/12/08 09:09:20;;;;;;;10.83;5.73;;;;;;;6.21;74.95;100020.47;5141097;27;20196;-69
2022/12/08 09:11:47;;;;;;;13.67;6.40;;;;;;;6.23;75.17;100018.56;5140879;27;20229;-68
2022/12/08 09:14:15;;;;;;;13.63;6.10;;;;;;;6.28;75.03;100016.34;5145912;27;20209;-68
2022/12/08 09:16:43;;;;;;;12.87;6.40;;;;;;;6.36;74.70;100019.16;5140385;27;20205;-69
2022/12/08 09:19:12;;;;;;;12.50;6.07;;;;;;;6.43;74.37;100016.81;5144018;27;20237;-69
2022/12/08 09:21:40;;;;;;;13.03;6.70;;;;;;;6.49;73.63;100013.66;5140220;27;20296;-69
2022/12/08 09:24:14;;;;;;;11.63;6.33;;;;;;;6.47;73.68;100009.50;5141596;27;20216;-69
2022/12/08 09:26:43;;;;;;;12.97;6.30;;;;;;;6.48;73.76;100005.91;5144194;27;20216;-69
2022/12/08 09:29:12;;;;;;;12.03;5.73;;;;;;;6.55;73.41;100017.56;5145934;27;20212;-69
2022/12/08 09:31:41;;;;;;;13.27;6.20;;;;;;;6.56;73.37;100011.34;5141823;27;20552;-70
2022/12/08 09:34:10;;;;;;;17.27;6.53;;;;;;;6.58;73.26;100006.78;5139464;27;20751;-67
2022/12/08 09:36:40;;;;;;;14.57;6.90;;;;;;;6.69;72.70;100006.63;5144203;27;20303;-67
2022/12/08 09:39:07;;;;;;;12.47;6.10;;;;;;;6.70;72.89;100008.31;5139393;27;20668;-67
2022/12/08 09:41:37;;;;;;;13.43;6.17;;;;;;;6.78;72.17;100003.19;5138213;27;20201;-67
2022/12/08 09:44:37;;;;;;;12.73;6.50;;;;;;;6.86;72.27;99995.44;5140195;27;20268;-68
2022/12/08 09:47:13;;;;;;;13.73;6.00;;;;;;;6.89;72.01;99997.81;5139635;27;20221;-68
2022/12/08 09:49:45;;;;;;;13.87;7.37;;;;;;;7.01;71.69;99994.09;5141130;27;20672;-68
2022/12/08 09:52:21;;;;;;;14.20;6.53;;;;;;;7.10;70.77;99993.28;5138804;27;20217;-68
2022/12/08 09:54:48;;;;;;;15.73;7.67;;;;;;;7.18;70.26;99988.16;5140149;27;20201;-68
2022/12/08 09:57:19;;;;;;;14.03;6.87;;;;;;;7.20;70.06;99992.47;5139624;27;20317;-68
2022/12/08 09:59:52;;;;;;;11.03;6.57;;;;;;;7.18;70.05;99989.97;5139332;27;20997;-68
2022/12/08 10:02:22;;;;;;;15.63;8.17;;;;;;;7.12;69.78;99980.78;5137649;27;20215;-68
2022/12/08 10:04:51;;;;;;;13.77;7.50;;;;;;;7.09;70.31;99980.25;5139326;27;20244;-69
2022/12/08 10:07:29;;;;;;;14.93;7.67;;;;;;;7.10;70.39;99974.84;5141166;27;21542;-69
2022/12/08 10:10:05;;;;;;;15.00;7.43;;;;;;;7.24;70.29;99973.56;5142762;27;20621;-68
2022/12/08 10:12:41;;;;;;;17.10;7.73;;;;;;;7.53;69.40;99978.84;5143609;27;20225;-68
2022/12/08 10:15:35;;;;;;;17.73;8.23;;;;;;;7.63;68.45;99963.84;5143098;27;20216;-68
2022/12/08 10:18:10;;;;;;;13.70;7.97;;;;;;;7.75;68.29;99967.97;5141659;27;20202;-69
2022/12/08 10:20:41;;;;;;;14.53;7.13;;;;;;;7.87;67.69;99966.00;5136095;27;20721;-68
2022/12/08 10:23:21;;;;;;;15.07;8.00;;;;;;;7.88;67.23;99963.22;5140137;27;20210;-69
2022/12/08 10:25:50;;;;;;;14.67;7.77;;;;;;;7.86;66.99;99959.06;5141693;27;20207;-69
2022/12/08 10:28:18;;;;;;;16.53;7.80;;;;;;;7.83;66.91;99959.31;5145849;27;20298;-68
2022/12/08 10:30:47;;;;;;;13.13;6.80;;;;;;;7.89;66.98;99953.50;5144043;27;20231;-68
2022/12/08 10:33:17;;;;;;;14.30;7.80;;;;;;;7.94;66.80;99957.34;5140927;27;20841;-68
2022/12/08 10:35:48;;;;;;;14.13;7.10;;;;;;;7.96;66.54;99951.09;5139548;27;20302;-69
2022/12/08 10:38:22;;;;;;;17.80;8.03;;;;;;;8.06;66.11;99952.75;5138509;27;20302;-69
2022/12/08 10:40:52;;;;;;;16.43;7.77;;;;;;;8.11;65.97;99944.38;5143492;27;20223;-68
2022/12/08 10:43:23;;;;;;;14.53;7.13;;;;;;;8.26;65.99;99943.78;5138259;27;20203;-68
2022/12/08 10:45:51;;;;;;;15.03;8.27;;;;;;;8.51;65.39;99944.09;5149227;27;20210;-68
2022/12/08 10:48:22;;;;;;;17.40;8.27;;;;;;;8.74;65.04;99933.94;5146748;27;20204;-68
2022/12/08 10:50:54;;;;;;;17.00;8.80;;;;;;;8.95;63.91;99931.84;5139681;27;20275;-68
2022/12/08 10:53:26;;;;;;;17.87;7.67;;;;;;;9.12;63.04;99928.38;5141317;27;20204;-69
2022/12/08 10:56:07;;;;;;;17.10;7.77;;;;;;;9.19;62.48;99924.13;5144948;27;20760;-69
2022/12/08 10:58:39;;;;;;;11.53;6.37;;;;;;;9.26;62.28;99925.19;5139415;27;20219;-69
2022/12/08 11:01:12;;;;;;;13.80;6.67;;;;;;;9.20;61.87;99925.78;5144771;27;20320;-69
2022/12/08 11:03:46;;;;;;;11.03;5.80;;;;;;;9.21;61.32;99931.91;5144826;27;20228;-69
2022/12/08 11:06:18;;;;;;;11.80;5.97;;;;;;;9.06;61.36;99929.78;5147956;27;20201;-68
2022/12/08 11:08:51;;;;;;;11.27;6.63;;;;;;;8.94;61.73;99919.59;5135571;27;20209;-69
2022/12/08 11:11:21;;;;;;;11.00;6.03;;;;;;;8.83;62.23;99922.47;5142359;27;20223;-69
2022/12/08 11:13:56;;;;;;;11.90;6.23;;;;;;;8.80;62.31;99917.47;5140173;27;20547;-67
2022/12/08 11:16:24;;;;;;;11.07;6.60;;;;;;;8.67;62.51;99918.69;5138393;27;20215;-68
2022/12/08 11:18:56;;;;;;;12.90;6.40;;;;;;;8.55;62.66;99911.94;5140938;27;20713;-68
2022/12/08 11:21:35;;;;;;;10.13;6.20;;;;;;;8.41;62.83;99903.69;5138899;27;20227;-68
2022/12/08 11:24:21;;;;;;;12.07;6.73;;;;;;;8.28;63.27;99911.91;5143805;27;20227;-68
2022/12/08 11:26:53;;;;;;;12.17;6.93;;;;;;;8.25;63.89;99899.03;5140275;27;20220;-69
2022/12/08 11:29:21;;;;;;;12.40;6.77;;;;;;;8.23;64.33;99904.44;5145348;27;20616;-70
2022/12/08 11:31:53;;;;;;;13.97;7.33;;;;;;;8.22;64.19;99900.13;5151351;27;20215;-69
2022/12/08 11:34:29;;;;;;;12.57;7.07;;;;;;;8.17;64.74;99898.91;5141800;27;20756;-70
2022/12/08 11:36:58;;;;;;;12.03;7.03;;;;;;;8.08;64.71;99894.50;5142685;27;20645;-69
2022/12/08 11:39:32;;;;;;;11.47;6.77;;;;;;;8.05;64.71;99898.28;5142107;27;20215;-68
2022/12/08 11:42:02;;;;;;;12.50;7.10;;;;;;;8.07;64.87;99890.22;5146432;27;20211;-69
2022/12/08 11:44:36;;;;;;;15.10;7.87;;;;;;;8.03;65.21;99878.25;5142915;27;20220;-67
2022/12/08 11:47:10;;;;;;;15.83;7.90;;;;;;;8.09;65.21;99880.34;5141520;27;20204;-68